Terminal Aerodrome Forecast
Issued by NWS

Home | Current Version | Previous Version | Text Only | Print | Product List | Glossary On
Versions: 1 2 3 4 5 6 7 8 9 10 11 12 13 14 15 16 17 18
000
FTUS41 KBTV 250324 AAC
TAFMPV
TAF AMD
KMPV 250324Z 2503/2524 00000KT 2SM -SNPL BR OVC002
      TEMPO 2503/2504 1SM -FZRASN BR VV001
     FM250400 00000KT 1 1/2SM -SN BR VV002
     FM250700 00000KT 2SM BR BKN015 OVC020
     FM251300 31004KT P6SM OVC025
     FM251700 34006KT P6SM OVC035=

USA.gov is the U.S. government's official web portal to all federal, state and local government web resources and services.